sensor_id;sensor_type;location;lat;lon;timestamp;temperature;humidity
36292;DHT22;22327;51.208;6.418;2024-02-26T00:01:42;10.80;99.20
36292;DHT22;22327;51.208;6.418;2024-02-26T00:04:44;10.80;99.40
36292;DHT22;22327;51.208;6.418;2024-02-26T00:07:44;10.90;99.50
36292;DHT22;22327;51.208;6.418;2024-02-26T00:10:45;10.90;99.40
36292;DHT22;22327;51.208;6.418;2024-02-26T00:13:45;10.90;99.40
36292;DHT22;22327;51.208;6.418;2024-02-26T00:16:46;10.90;99.20
36292;DHT22;22327;51.208;6.418;2024-02-26T00:19:46;10.90;99.40
36292;DHT22;22327;51.208;6.418;2024-02-26T00:22:47;10.90;99.50
36292;DHT22;22327;51.208;6.418;2024-02-26T00:25:47;10.90;99.70
36292;DHT22;22327;51.208;6.418;2024-02-26T00:28:48;10.80;99.90
36292;DHT22;22327;51.208;6.418;2024-02-26T00:31:49;10.80;99.90
36292;DHT22;22327;51.208;6.418;2024-02-26T00:34:49;10.60;99.90
36292;DHT22;22327;51.208;6.418;2024-02-26T00:37:50;10.60;99.90
36292;DHT22;22327;51.208;6.418;2024-02-26T00:40:51;10.40;99.90
36292;DHT22;22327;51.208;6.418;2024-02-26T00:43:51;10.50;99.90
36292;DHT22;22327;51.208;6.418;2024-02-26T00:46:52;10.50;99.90
36292;DHT22;22327;51.208;6.418;2024-02-26T00:49:52;10.40;99.90
36292;DHT22;22327;51.208;6.418;2024-02-26T00:52:53;10.40;99.90
36292;DHT22;22327;51.208;6.418;2024-02-26T00:55:53;10.30;99.90
36292;DHT22;22327;51.208;6.418;2024-02-26T00:58:54;10.30;99.90
36292;DHT22;22327;51.208;6.418;2024-02-26T01:01:54;10.30;99.90
36292;DHT22;22327;51.208;6.418;2024-02-26T01:04:55;10.30;99.90
36292;DHT22;22327;51.208;6.418;2024-02-26T01:07:55;10.20;99.90
36292;DHT22;22327;51.208;6.418;2024-02-26T01:10:56;10.20;99.90
36292;DHT22;22327;51.208;6.418;2024-02-26T01:13:56;10.10;99.90
36292;DHT22;22327;51.208;6.418;2024-02-26T01:16:57;10.00;99.90
36292;DHT22;22327;51.208;6.418;2024-02-26T01:19:58;10.00;99.90
36292;DHT22;22327;51.208;6.418;2024-02-26T01:22:58;10.00;99.90
36292;DHT22;22327;51.208;6.418;2024-02-26T01:25:59;10.00;99.90
36292;DHT22;22327;51.208;6.418;2024-02-26T01:28:59;9.90;99.90
36292;DHT22;22327;51.208;6.418;2024-02-26T01:32:00;9.80;99.90
36292;DHT22;22327;51.208;6.418;2024-02-26T01:35:00;9.90;99.90
36292;DHT22;22327;51.208;6.418;2024-02-26T01:38:01;9.80;99.90
36292;DHT22;22327;51.208;6.418;2024-02-26T01:41:01;9.80;99.90
36292;DHT22;22327;51.208;6.418;2024-02-26T01:44:02;9.80;99.90
36292;DHT22;22327;51.208;6.418;2024-02-26T01:47:04;9.70;99.90
36292;DHT22;22327;51.208;6.418;2024-02-26T01:50:05;9.60;99.90
36292;DHT22;22327;51.208;6.418;2024-02-26T01:53:06;9.60;99.90
36292;DHT22;22327;51.208;6.418;2024-02-26T01:56:08;9.60;99.90
36292;DHT22;22327;51.208;6.418;2024-02-26T01:59:09;9.60;99.90
36292;DHT22;22327;51.208;6.418;2024-02-26T02:02:10;9.50;99.90
36292;DHT22;22327;51.208;6.418;2024-02-26T02:05:12;9.40;99.90
36292;DHT22;22327;51.208;6.418;2024-02-26T02:08:13;9.40;99.90
36292;DHT22;22327;51.208;6.418;2024-02-26T02:11:14;9.40;99.90
36292;DHT22;22327;51.208;6.418;2024-02-26T02:14:15;9.40;99.90
36292;DHT22;22327;51.208;6.418;2024-02-26T02:17:15;9.30;99.90
36292;DHT22;22327;51.208;6.418;2024-02-26T02:20:17;9.30;99.90
36292;DHT22;22327;51.208;6.418;2024-02-26T02:23:18;9.30;99.90
36292;DHT22;22327;51.208;6.418;2024-02-26T02:26:19;9.40;99.90
36292;DHT22;22327;51.208;6.418;2024-02-26T02:29:20;9.40;99.90
36292;DHT22;22327;51.208;6.418;2024-02-26T02:32:21;9.40;99.90
36292;DHT22;22327;51.208;6.418;2024-02-26T02:35:22;9.40;99.90
36292;DHT22;22327;51.208;6.418;2024-02-26T02:38:23;9.40;99.90
36292;DHT22;22327;51.208;6.418;2024-02-26T02:41:24;9.30;99.90
36292;DHT22;22327;51.208;6.418;2024-02-26T02:44:26;9.30;99.90
36292;DHT22;22327;51.208;6.418;2024-02-26T02:47:27;9.30;99.90
36292;DHT22;22327;51.208;6.418;2024-02-26T02:50:27;9.20;99.90
36292;DHT22;22327;51.208;6.418;2024-02-26T02:53:29;9.20;99.90
36292;DHT22;22327;51.208;6.418;2024-02-26T02:56:30;9.10;99.90
36292;DHT22;22327;51.208;6.418;2024-02-26T02:59:30;9.00;99.90
36292;DHT22;22327;51.208;6.418;2024-02-26T03:02:31;9.10;99.90
36292;DHT22;22327;51.208;6.418;2024-02-26T03:05:31;9.00;99.90
36292;DHT22;22327;51.208;6.418;2024-02-26T03:08:32;9.00;99.90
36292;DHT22;22327;51.208;6.418;2024-02-26T03:11:32;9.00;99.90
36292;DHT22;22327;51.208;6.418;2024-02-26T03:14:33;9.00;99.90
36292;DHT22;22327;51.208;6.418;2024-02-26T03:17:33;9.00;99.90
36292;DHT22;22327;51.208;6.418;2024-02-26T03:20:34;9.00;99.90
36292;DHT22;22327;51.208;6.418;2024-02-26T03:23:34;9.00;99.90
36292;DHT22;22327;51.208;6.418;2024-02-26T03:26:38;8.90;99.90
36292;DHT22;22327;51.208;6.418;2024-02-26T03:29:38;9.00;99.90
36292;DHT22;22327;51.208;6.418;2024-02-26T03:32:39;8.90;99.90
36292;DHT22;22327;51.208;6.418;2024-02-26T03:35:40;8.80;99.90
36292;DHT22;22327;51.208;6.418;2024-02-26T03:38:40;8.80;99.90
36292;DHT22;22327;51.208;6.418;2024-02-26T03:41:41;8.90;99.90
36292;DHT22;22327;51.208;6.418;2024-02-26T03:44:41;8.90;99.90
36292;DHT22;22327;51.208;6.418;2024-02-26T03:47:42;8.90;99.90
36292;DHT22;22327;51.208;6.418;2024-02-26T03:50:42;9.00;99.90
36292;DHT22;22327;51.208;6.418;2024-02-26T03:53:43;8.90;99.90
36292;DHT22;22327;51.208;6.418;2024-02-26T03:56:43;8.80;99.90
36292;DHT22;22327;51.208;6.418;2024-02-26T03:59:44;8.80;99.90
36292;DHT22;22327;51.208;6.418;2024-02-26T04:02:44;8.80;99.90
36292;DHT22;22327;51.208;6.418;2024-02-26T04:05:45;8.80;99.90
36292;DHT22;22327;51.208;6.418;2024-02-26T04:08:45;8.70;99.90
36292;DHT22;22327;51.208;6.418;2024-02-26T04:11:46;8.70;99.90
36292;DHT22;22327;51.208;6.418;2024-02-26T04:14:46;8.60;99.90
36292;DHT22;22327;51.208;6.418;2024-02-26T04:17:47;8.60;99.90
36292;DHT22;22327;51.208;6.418;2024-02-26T04:20:47;8.60;99.90
36292;DHT22;22327;51.208;6.418;2024-02-26T04:23:48;8.60;99.90
36292;DHT22;22327;51.208;6.418;2024-02-26T04:26:49;8.60;99.90
36292;DHT22;22327;51.208;6.418;2024-02-26T04:29:50;8.50;99.90
36292;DHT22;22327;51.208;6.418;2024-02-26T04:32:50;8.50;99.90
36292;DHT22;22327;51.208;6.418;2024-02-26T04:35:51;8.50;99.90
36292;DHT22;22327;51.208;6.418;2024-02-26T04:38:51;8.60;99.90
36292;DHT22;22327;51.208;6.418;2024-02-26T04:41:54;8.50;99.90
36292;DHT22;22327;51.208;6.418;2024-02-26T04:44:55;8.40;99.90
36292;DHT22;22327;51.208;6.418;2024-02-26T04:47:56;8.50;99.90
36292;DHT22;22327;51.208;6.418;2024-02-26T04:50:56;8.50;99.90
36292;DHT22;22327;51.208;6.418;2024-02-26T04:53:57;8.60;99.90
36292;DHT22;22327;51.208;6.418;2024-02-26T04:56:57;8.50;99.90
36292;DHT22;22327;51.208;6.418;2024-02-26T04:59:58;8.40;99.90
36292;DHT22;22327;51.208;6.418;2024-02-26T05:02:58;8.40;99.90
36292;DHT22;22327;51.208;6.418;2024-02-26T05:05:59;8.40;99.90
36292;DHT22;22327;51.208;6.418;2024-02-26T05:09:01;8.50;99.90
36292;DHT22;22327;51.208;6.418;2024-02-26T05:12:01;8.40;99.90
36292;DHT22;22327;51.208;6.418;2024-02-26T05:15:03;8.40;99.90
36292;DHT22;22327;51.208;6.418;2024-02-26T05:18:04;8.40;99.90
36292;DHT22;22327;51.208;6.418;2024-02-26T05:21:04;8.40;99.90
36292;DHT22;22327;51.208;6.418;2024-02-26T05:24:05;8.40;99.90
36292;DHT22;22327;51.208;6.418;2024-02-26T05:27:07;8.40;99.90
36292;DHT22;22327;51.208;6.418;2024-02-26T05:30:08;8.50;99.90
36292;DHT22;22327;51.208;6.418;2024-02-26T05:33:08;8.50;99.90
36292;DHT22;22327;51.208;6.418;2024-02-26T05:36:09;8.50;99.90
36292;DHT22;22327;51.208;6.418;2024-02-26T05:39:09;8.40;99.90
36292;DHT22;22327;51.208;6.418;2024-02-26T05:42:12;8.40;99.90
36292;DHT22;22327;51.208;6.418;2024-02-26T05:45:12;8.40;99.90
36292;DHT22;22327;51.208;6.418;2024-02-26T05:48:13;8.50;99.90
36292;DHT22;22327;51.208;6.418;2024-02-26T05:51:13;8.40;99.90
36292;DHT22;22327;51.208;6.418;2024-02-26T05:54:14;8.40;99.90
36292;DHT22;22327;51.208;6.418;2024-02-26T05:57:14;8.50;99.90
36292;DHT22;22327;51.208;6.418;2024-02-26T06:00:15;8.40;99.90
36292;DHT22;22327;51.208;6.418;2024-02-26T06:03:16;8.50;99.90
36292;DHT22;22327;51.208;6.418;2024-02-26T06:06:17;8.50;99.90
36292;DHT22;22327;51.208;6.418;2024-02-26T06:09:17;8.40;99.90
36292;DHT22;22327;51.208;6.418;2024-02-26T06:12:18;8.40;99.90
36292;DHT22;22327;51.208;6.418;2024-02-26T06:15:18;8.40;99.90
36292;DHT22;22327;51.208;6.418;2024-02-26T06:18:19;8.30;99.90
36292;DHT22;22327;51.208;6.418;2024-02-26T06:21:19;8.30;99.90
36292;DHT22;22327;51.208;6.418;2024-02-26T06:24:20;8.30;99.90
36292;DHT22;22327;51.208;6.418;2024-02-26T06:27:23;8.40;99.90
36292;DHT22;22327;51.208;6.418;2024-02-26T06:30:24;8.40;99.90
36292;DHT22;22327;51.208;6.418;2024-02-26T06:33:24;8.40;99.90
36292;DHT22;22327;51.208;6.418;2024-02-26T06:36:25;8.20;99.90
36292;DHT22;22327;51.208;6.418;2024-02-26T06:39:26;8.20;99.90
36292;DHT22;22327;51.208;6.418;2024-02-26T06:42:26;8.20;99.90
36292;DHT22;22327;51.208;6.418;2024-02-26T06:45:27;8.20;99.90
36292;DHT22;22327;51.208;6.418;2024-02-26T06:48:27;8.10;99.90
36292;DHT22;22327;51.208;6.418;2024-02-26T06:51:28;8.20;99.90
36292;DHT22;22327;51.208;6.418;2024-02-26T06:54:28;8.10;99.90
36292;DHT22;22327;51.208;6.418;2024-02-26T06:57:29;8.20;99.90
36292;DHT22;22327;51.208;6.418;2024-02-26T07:00:29;8.20;99.90
36292;DHT22;22327;51.208;6.418;2024-02-26T07:03:30;8.10;99.90
36292;DHT22;22327;51.208;6.418;2024-02-26T07:06:30;8.10;99.90
36292;DHT22;22327;51.208;6.418;2024-02-26T07:09:31;8.10;99.90
36292;DHT22;22327;51.208;6.418;2024-02-26T07:12:31;7.90;99.90
36292;DHT22;22327;51.208;6.418;2024-02-26T07:15:32;8.00;99.90
36292;DHT22;22327;51.208;6.418;2024-02-26T07:18:33;8.10;99.90
36292;DHT22;22327;51.208;6.418;2024-02-26T07:21:34;8.00;99.90
36292;DHT22;22327;51.208;6.418;2024-02-26T07:24:34;8.10;99.90
36292;DHT22;22327;51.208;6.418;2024-02-26T07:27:35;8.10;99.90
36292;DHT22;22327;51.208;6.418;2024-02-26T07:30:35;8.00;99.90
36292;DHT22;22327;51.208;6.418;2024-02-26T07:33:36;7.90;99.90
36292;DHT22;22327;51.208;6.418;2024-02-26T07:36:36;7.90;99.90
36292;DHT22;22327;51.208;6.418;2024-02-26T07:39:37;7.90;99.90
36292;DHT22;22327;51.208;6.418;2024-02-26T07:42:37;7.90;99.90
36292;DHT22;22327;51.208;6.418;2024-02-26T07:45:39;8.00;99.90
36292;DHT22;22327;51.208;6.418;2024-02-26T07:48:40;8.00;99.90
36292;DHT22;22327;51.208;6.418;2024-02-26T07:51:41;8.00;99.90
36292;DHT22;22327;51.208;6.418;2024-02-26T07:54:42;8.00;99.90
36292;DHT22;22327;51.208;6.418;2024-02-26T07:57:43;8.00;99.90
36292;DHT22;22327;51.208;6.418;2024-02-26T08:00:46;8.00;99.90
36292;DHT22;22327;51.208;6.418;2024-02-26T08:03:47;8.10;99.90
36292;DHT22;22327;51.208;6.418;2024-02-26T08:06:47;8.30;99.90
36292;DHT22;22327;51.208;6.418;2024-02-26T08:09:48;8.10;99.90
36292;DHT22;22327;51.208;6.418;2024-02-26T08:12:48;8.20;99.90
36292;DHT22;22327;51.208;6.418;2024-02-26T08:15:49;8.30;99.90
36292;DHT22;22327;51.208;6.418;2024-02-26T08:18:50;8.40;99.90
36292;DHT22;22327;51.208;6.418;2024-02-26T08:21:50;8.40;99.90
36292;DHT22;22327;51.208;6.418;2024-02-26T08:24:51;8.50;99.90
36292;DHT22;22327;51.208;6.418;2024-02-26T08:27:52;8.50;99.90
36292;DHT22;22327;51.208;6.418;2024-02-26T08:30:52;8.50;99.90
36292;DHT22;22327;51.208;6.418;2024-02-26T08:33:53;8.60;99.90
36292;DHT22;22327;51.208;6.418;2024-02-26T08:36:53;8.50;99.90
36292;DHT22;22327;51.208;6.418;2024-02-26T08:39:54;8.50;99.90
36292;DHT22;22327;51.208;6.418;2024-02-26T08:42:55;8.60;99.90
36292;DHT22;22327;51.208;6.418;2024-02-26T08:45:57;8.60;99.90
36292;DHT22;22327;51.208;6.418;2024-02-26T08:48:57;8.60;99.90
36292;DHT22;22327;51.208;6.418;2024-02-26T08:51:58;8.60;99.90
36292;DHT22;22327;51.208;6.418;2024-02-26T08:54:58;8.60;99.90
36292;DHT22;22327;51.208;6.418;2024-02-26T08:57:59;8.60;99.90
36292;DHT22;22327;51.208;6.418;2024-02-26T09:00:59;8.70;99.90
36292;DHT22;22327;51.208;6.418;2024-02-26T09:04:00;8.70;99.90
36292;DHT22;22327;51.208;6.418;2024-02-26T09:07:01;8.60;99.90
36292;DHT22;22327;51.208;6.418;2024-02-26T09:10:01;8.70;99.90
36292;DHT22;22327;51.208;6.418;2024-02-26T09:13:02;8.60;99.90
36292;DHT22;22327;51.208;6.418;2024-02-26T09:16:03;8.60;99.90
36292;DHT22;22327;51.208;6.418;2024-02-26T09:19:04;8.60;99.90
36292;DHT22;22327;51.208;6.418;2024-02-26T09:22:04;8.60;99.90
36292;DHT22;22327;51.208;6.418;2024-02-26T09:25:05;8.60;99.90
36292;DHT22;22327;51.208;6.418;2024-02-26T09:28:06;8.50;99.90
36292;DHT22;22327;51.208;6.418;2024-02-26T09:31:07;8.50;99.90
36292;DHT22;22327;51.208;6.418;2024-02-26T09:34:08;8.40;99.90
36292;DHT22;22327;51.208;6.418;2024-02-26T09:37:08;8.40;99.90
36292;DHT22;22327;51.208;6.418;2024-02-26T09:40:09;8.40;99.90
36292;DHT22;22327;51.208;6.418;2024-02-26T09:43:14;8.40;99.90
36292;DHT22;22327;51.208;6.418;2024-02-26T09:46:15;8.40;99.90
36292;DHT22;22327;51.208;6.418;2024-02-26T09:49:21;8.50;99.90
36292;DHT22;22327;51.208;6.418;2024-02-26T09:52:23;8.50;99.90
36292;DHT22;22327;51.208;6.418;2024-02-26T09:55:24;8.50;99.90
36292;DHT22;22327;51.208;6.418;2024-02-26T09:58:27;8.50;99.90
36292;DHT22;22327;51.208;6.418;2024-02-26T10:01:28;8.50;99.90
36292;DHT22;22327;51.208;6.418;2024-02-26T10:04:33;8.50;99.90
36292;DHT22;22327;51.208;6.418;2024-02-26T10:07:34;8.60;99.90
36292;DHT22;22327;51.208;6.418;2024-02-26T10:10:36;8.60;99.90
36292;DHT22;22327;51.208;6.418;2024-02-26T10:13:37;8.60;99.90
36292;DHT22;22327;51.208;6.418;2024-02-26T10:16:38;8.60;99.90
36292;DHT22;22327;51.208;6.418;2024-02-26T10:19:39;8.60;99.90
36292;DHT22;22327;51.208;6.418;2024-02-26T10:22:41;8.70;99.90
36292;DHT22;22327;51.208;6.418;2024-02-26T10:25:55;8.80;99.90
36292;DHT22;22327;51.208;6.418;2024-02-26T10:28:59;8.80;99.90
36292;DHT22;22327;51.208;6.418;2024-02-26T10:32:01;8.80;99.90
36292;DHT22;22327;51.208;6.418;2024-02-26T10:35:02;8.80;99.90
36292;DHT22;22327;51.208;6.418;2024-02-26T10:38:03;8.90;99.90
36292;DHT22;22327;51.208;6.418;2024-02-26T10:41:06;8.90;99.90
36292;DHT22;22327;51.208;6.418;2024-02-26T10:44:09;8.90;99.90
36292;DHT22;22327;51.208;6.418;2024-02-26T10:47:10;9.00;99.90
36292;DHT22;22327;51.208;6.418;2024-02-26T10:50:12;8.90;99.90
36292;DHT22;22327;51.208;6.418;2024-02-26T10:53:20;8.90;99.90
36292;DHT22;22327;51.208;6.418;2024-02-26T10:56:23;9.00;99.90
36292;DHT22;22327;51.208;6.418;2024-02-26T10:59:26;9.10;99.90
36292;DHT22;22327;51.208;6.418;2024-02-26T11:02:27;9.20;99.90
36292;DHT22;22327;51.208;6.418;2024-02-26T11:05:28;9.30;99.90
36292;DHT22;22327;51.208;6.418;2024-02-26T11:08:30;9.30;99.90
36292;DHT22;22327;51.208;6.418;2024-02-26T11:11:33;9.20;99.90
36292;DHT22;22327;51.208;6.418;2024-02-26T11:14:35;9.20;99.90
36292;DHT22;22327;51.208;6.418;2024-02-26T11:17:38;9.20;99.90
36292;DHT22;22327;51.208;6.418;2024-02-26T11:20:40;9.30;99.90
36292;DHT22;22327;51.208;6.418;2024-02-26T11:23:41;9.50;99.90
36292;DHT22;22327;51.208;6.418;2024-02-26T11:26:49;9.70;99.90
36292;DHT22;22327;51.208;6.418;2024-02-26T11:29:52;9.70;99.90
36292;DHT22;22327;51.208;6.418;2024-02-26T11:32:54;9.70;99.90
36292;DHT22;22327;51.208;6.418;2024-02-26T11:35:55;9.80;99.90
36292;DHT22;22327;51.208;6.418;2024-02-26T11:38:56;9.70;99.90
36292;DHT22;22327;51.208;6.418;2024-02-26T11:42:05;9.60;99.90
36292;DHT22;22327;51.208;6.418;2024-02-26T11:49:01;9.80;99.90
36292;DHT22;22327;51.208;6.418;2024-02-26T11:52:06;9.80;99.90
36292;DHT22;22327;51.208;6.418;2024-02-26T11:55:07;9.80;99.90
36292;DHT22;22327;51.208;6.418;2024-02-26T11:58:09;9.90;99.90
36292;DHT22;22327;51.208;6.418;2024-02-26T12:04:39;9.90;99.90
36292;DHT22;22327;51.208;6.418;2024-02-26T12:07:41;9.70;99.90
36292;DHT22;22327;51.208;6.418;2024-02-26T12:10:42;9.60;99.90
36292;DHT22;22327;51.208;6.418;2024-02-26T12:13:47;9.70;99.90
36292;DHT22;22327;51.208;6.418;2024-02-26T12:16:50;9.60;99.90
36292;DHT22;22327;51.208;6.418;2024-02-26T12:19:51;9.60;99.90
36292;DHT22;22327;51.208;6.418;2024-02-26T12:22:54;9.60;99.90
36292;DHT22;22327;51.208;6.418;2024-02-26T12:25:59;9.60;99.90
36292;DHT22;22327;51.208;6.418;2024-02-26T12:29:00;9.70;99.90
36292;DHT22;22327;51.208;6.418;2024-02-26T12:32:01;9.60;99.90
36292;DHT22;22327;51.208;6.418;2024-02-26T12:35:05;9.60;99.90
36292;DHT22;22327;51.208;6.418;2024-02-26T12:38:05;9.60;99.90
36292;DHT22;22327;51.208;6.418;2024-02-26T12:41:06;9.60;99.90
36292;DHT22;22327;51.208;6.418;2024-02-26T12:44:08;9.60;99.90
36292;DHT22;22327;51.208;6.418;2024-02-26T12:47:09;9.60;99.90
36292;DHT22;22327;51.208;6.418;2024-02-26T12:50:11;9.60;99.90
36292;DHT22;22327;51.208;6.418;2024-02-26T12:53:12;9.60;99.90
36292;DHT22;22327;51.208;6.418;2024-02-26T12:56:12;9.70;99.90
36292;DHT22;22327;51.208;6.418;2024-02-26T12:59:13;9.80;99.90
36292;DHT22;22327;51.208;6.418;2024-02-26T13:02:14;9.80;99.90
36292;DHT22;22327;51.208;6.418;2024-02-26T13:05:15;9.70;99.90
36292;DHT22;22327;51.208;6.418;2024-02-26T13:08:20;9.70;99.90
36292;DHT22;22327;51.208;6.418;2024-02-26T13:11:21;9.60;99.90
36292;DHT22;22327;51.208;6.418;2024-02-26T13:14:21;9.70;99.90
36292;DHT22;22327;51.208;6.418;2024-02-26T13:17:22;9.80;99.90
36292;DHT22;22327;51.208;6.418;2024-02-26T13:20:26;9.80;99.90
36292;DHT22;22327;51.208;6.418;2024-02-26T13:23:28;9.80;99.90
36292;DHT22;22327;51.208;6.418;2024-02-26T13:26:29;9.90;99.90
36292;DHT22;22327;51.208;6.418;2024-02-26T13:29:29;9.90;99.90
36292;DHT22;22327;51.208;6.418;2024-02-26T13:32:32;10.00;99.90
36292;DHT22;22327;51.208;6.418;2024-02-26T13:35:33;10.20;99.90
36292;DHT22;22327;51.208;6.418;2024-02-26T13:38:35;10.20;99.90
36292;DHT22;22327;51.208;6.418;2024-02-26T13:41:35;10.20;99.90
36292;DHT22;22327;51.208;6.418;2024-02-26T13:44:36;10.30;99.90
36292;DHT22;22327;51.208;6.418;2024-02-26T13:47:39;10.30;99.90
36292;DHT22;22327;51.208;6.418;2024-02-26T13:50:42;10.30;99.90
36292;DHT22;22327;51.208;6.418;2024-02-26T13:53:45;10.40;99.90
36292;DHT22;22327;51.208;6.418;2024-02-26T13:56:46;10.50;99.90
36292;DHT22;22327;51.208;6.418;2024-02-26T13:59:47;10.50;99.90
36292;DHT22;22327;51.208;6.418;2024-02-26T14:02:48;10.50;99.90
36292;DHT22;22327;51.208;6.418;2024-02-26T14:05:49;10.50;99.90
36292;DHT22;22327;51.208;6.418;2024-02-26T14:08:49;10.50;99.90
36292;DHT22;22327;51.208;6.418;2024-02-26T14:11:50;10.40;99.90
36292;DHT22;22327;51.208;6.418;2024-02-26T14:14:50;10.50;99.90
36292;DHT22;22327;51.208;6.418;2024-02-26T14:17:53;10.50;99.90
36292;DHT22;22327;51.208;6.418;2024-02-26T14:20:56;10.40;99.90
36292;DHT22;22327;51.208;6.418;2024-02-26T14:23:56;10.50;99.90
36292;DHT22;22327;51.208;6.418;2024-02-26T14:26:57;10.50;99.90
36292;DHT22;22327;51.208;6.418;2024-02-26T14:29:57;10.50;99.90
36292;DHT22;22327;51.208;6.418;2024-02-26T14:32:58;10.50;99.90
36292;DHT22;22327;51.208;6.418;2024-02-26T14:35:59;10.50;99.90
36292;DHT22;22327;51.208;6.418;2024-02-26T14:38:59;10.50;99.90
36292;DHT22;22327;51.208;6.418;2024-02-26T14:42:00;10.50;99.90
36292;DHT22;22327;51.208;6.418;2024-02-26T14:45:01;10.60;99.90
36292;DHT22;22327;51.208;6.418;2024-02-26T14:48:01;10.50;99.90
36292;DHT22;22327;51.208;6.418;2024-02-26T14:51:02;10.40;99.90
36292;DHT22;22327;51.208;6.418;2024-02-26T14:54:05;10.40;99.90
36292;DHT22;22327;51.208;6.418;2024-02-26T14:57:06;10.30;99.90
36292;DHT22;22327;51.208;6.418;2024-02-26T15:00:07;10.30;99.90
36292;DHT22;22327;51.208;6.418;2024-02-26T15:03:08;10.30;99.90
36292;DHT22;22327;51.208;6.418;2024-02-26T15:06:09;10.20;99.90
36292;DHT22;22327;51.208;6.418;2024-02-26T15:09:09;10.20;99.90
36292;DHT22;22327;51.208;6.418;2024-02-26T15:12:10;10.30;99.90
36292;DHT22;22327;51.208;6.418;2024-02-26T15:15:10;10.30;99.90
36292;DHT22;22327;51.208;6.418;2024-02-26T15:18:11;10.30;99.90
36292;DHT22;22327;51.208;6.418;2024-02-26T15:21:15;10.20;99.90
36292;DHT22;22327;51.208;6.418;2024-02-26T15:24:16;10.20;99.90
36292;DHT22;22327;51.208;6.418;2024-02-26T15:27:17;10.20;99.90
36292;DHT22;22327;51.208;6.418;2024-02-26T15:30:18;10.30;99.90
36292;DHT22;22327;51.208;6.418;2024-02-26T15:33:18;10.30;99.90
36292;DHT22;22327;51.208;6.418;2024-02-26T15:36:19;10.30;99.90
36292;DHT22;22327;51.208;6.418;2024-02-26T15:39:19;10.30;99.90
36292;DHT22;22327;51.208;6.418;2024-02-26T15:42:21;10.30;99.90
36292;DHT22;22327;51.208;6.418;2024-02-26T15:45:21;10.30;99.90
36292;DHT22;22327;51.208;6.418;2024-02-26T15:48:24;10.20;99.90
36292;DHT22;22327;51.208;6.418;2024-02-26T15:51:25;10.20;99.90
36292;DHT22;22327;51.208;6.418;2024-02-26T15:54:26;10.20;99.90
36292;DHT22;22327;51.208;6.418;2024-02-26T15:57:26;10.10;99.90
36292;DHT22;22327;51.208;6.418;2024-02-26T16:00:27;10.20;99.90
36292;DHT22;22327;51.208;6.418;2024-02-26T16:03:27;10.10;99.90
36292;DHT22;22327;51.208;6.418;2024-02-26T16:07:03;10.00;99.90
36292;DHT22;22327;51.208;6.418;2024-02-26T16:10:09;10.00;99.90
36292;DHT22;22327;51.208;6.418;2024-02-26T16:13:09;9.90;99.90
36292;DHT22;22327;51.208;6.418;2024-02-26T16:16:16;9.90;99.90
36292;DHT22;22327;51.208;6.418;2024-02-26T16:19:18;10.00;99.90
36292;DHT22;22327;51.208;6.418;2024-02-26T16:22:19;9.90;99.90
36292;DHT22;22327;51.208;6.418;2024-02-26T16:25:19;9.90;99.90
36292;DHT22;22327;51.208;6.418;2024-02-26T16:28:20;10.00;99.90
36292;DHT22;22327;51.208;6.418;2024-02-26T16:31:25;9.90;99.90
36292;DHT22;22327;51.208;6.418;2024-02-26T16:34:25;9.90;99.90
36292;DHT22;22327;51.208;6.418;2024-02-26T16:37:27;9.90;99.90
36292;DHT22;22327;51.208;6.418;2024-02-26T16:40:28;9.90;99.90
36292;DHT22;22327;51.208;6.418;2024-02-26T16:43:29;9.90;99.90
36292;DHT22;22327;51.208;6.418;2024-02-26T16:46:32;9.90;99.90
36292;DHT22;22327;51.208;6.418;2024-02-26T16:49:34;9.80;99.90
36292;DHT22;22327;51.208;6.418;2024-02-26T16:52:34;9.80;99.90
36292;DHT22;22327;51.208;6.418;2024-02-26T16:55:35;9.80;99.90
36292;DHT22;22327;51.208;6.418;2024-02-26T16:58:35;9.70;99.90
36292;DHT22;22327;51.208;6.418;2024-02-26T17:01:36;9.70;99.90
36292;DHT22;22327;51.208;6.418;2024-02-26T17:04:36;9.70;99.90
36292;DHT22;22327;51.208;6.418;2024-02-26T17:07:37;9.70;99.90
36292;DHT22;22327;51.208;6.418;2024-02-26T17:10:38;9.70;99.90
36292;DHT22;22327;51.208;6.418;2024-02-26T17:13:38;9.70;99.90
36292;DHT22;22327;51.208;6.418;2024-02-26T17:16:39;9.70;99.90
36292;DHT22;22327;51.208;6.418;2024-02-26T17:19:39;9.70;99.90
36292;DHT22;22327;51.208;6.418;2024-02-26T17:22:40;9.80;99.90
36292;DHT22;22327;51.208;6.418;2024-02-26T17:25:40;9.80;99.90
36292;DHT22;22327;51.208;6.418;2024-02-26T17:28:41;9.80;99.90
36292;DHT22;22327;51.208;6.418;2024-02-26T17:31:42;9.70;99.90
36292;DHT22;22327;51.208;6.418;2024-02-26T17:34:43;9.70;99.90
36292;DHT22;22327;51.208;6.418;2024-02-26T17:37:45;9.70;99.90
36292;DHT22;22327;51.208;6.418;2024-02-26T17:40:45;9.70;99.90
36292;DHT22;22327;51.208;6.418;2024-02-26T17:43:46;9.70;99.90
36292;DHT22;22327;51.208;6.418;2024-02-26T17:46:46;9.80;99.90
36292;DHT22;22327;51.208;6.418;2024-02-26T17:49:47;9.80;99.90
36292;DHT22;22327;51.208;6.418;2024-02-26T17:52:47;9.80;99.90
36292;DHT22;22327;51.208;6.418;2024-02-26T17:55:49;9.90;99.90
36292;DHT22;22327;51.208;6.418;2024-02-26T17:58:50;9.80;99.90
36292;DHT22;22327;51.208;6.418;2024-02-26T18:01:50;9.70;99.90
36292;DHT22;22327;51.208;6.418;2024-02-26T18:04:51;9.70;99.90
36292;DHT22;22327;51.208;6.418;2024-02-26T18:07:51;9.60;99.90
36292;DHT22;22327;51.208;6.418;2024-02-26T18:10:52;9.70;99.90
36292;DHT22;22327;51.208;6.418;2024-02-26T18:13:53;9.70;99.90
36292;DHT22;22327;51.208;6.418;2024-02-26T18:16:53;9.70;99.90
36292;DHT22;22327;51.208;6.418;2024-02-26T18:19:54;9.70;99.90
36292;DHT22;22327;51.208;6.418;2024-02-26T18:22:54;9.70;99.90
36292;DHT22;22327;51.208;6.418;2024-02-26T18:25:55;9.60;99.90
36292;DHT22;22327;51.208;6.418;2024-02-26T18:28:56;9.60;99.90
36292;DHT22;22327;51.208;6.418;2024-02-26T18:31:56;9.70;99.90
36292;DHT22;22327;51.208;6.418;2024-02-26T18:34:58;9.70;99.90
36292;DHT22;22327;51.208;6.418;2024-02-26T18:37:59;9.80;99.90
36292;DHT22;22327;51.208;6.418;2024-02-26T18:40:59;9.80;99.90
36292;DHT22;22327;51.208;6.418;2024-02-26T18:44:00;9.80;99.90
36292;DHT22;22327;51.208;6.418;2024-02-26T18:47:01;9.90;99.90
36292;DHT22;22327;51.208;6.418;2024-02-26T18:50:01;9.80;99.90
36292;DHT22;22327;51.208;6.418;2024-02-26T18:53:03;9.80;99.90
36292;DHT22;22327;51.208;6.418;2024-02-26T18:56:03;9.80;99.90
36292;DHT22;22327;51.208;6.418;2024-02-26T18:59:04;9.90;99.90
36292;DHT22;22327;51.208;6.418;2024-02-26T19:02:05;9.80;99.90
36292;DHT22;22327;51.208;6.418;2024-02-26T19:05:06;9.80;99.90
36292;DHT22;22327;51.208;6.418;2024-02-26T19:08:06;9.80;99.90
36292;DHT22;22327;51.208;6.418;2024-02-26T19:11:10;9.80;99.90
36292;DHT22;22327;51.208;6.418;2024-02-26T19:14:10;9.80;99.90
36292;DHT22;22327;51.208;6.418;2024-02-26T19:17:14;9.90;99.90
36292;DHT22;22327;51.208;6.418;2024-02-26T19:20:15;9.90;99.90
36292;DHT22;22327;51.208;6.418;2024-02-26T19:23:17;9.90;99.90
36292;DHT22;22327;51.208;6.418;2024-02-26T19:26:17;9.90;99.90